Corbin, Kentucky
Current Conditions -  °F | °C
As of 6:53 AM on Monday 26 Jan 2015 (Local Time) from KLOZ Reporting Station
Overcast Overcast  
Wind Chill: 26°   Ceiling: 600
Heat Index: 34°   Visibility: 10mi
Dew Point: 28°   Wind: 10mph
Humidity: 79%   Direction: 310°NW
Pressure: 29.74"   Gusts: NA
Location:  36.94°N, 84.09°W
Report Text: KLOZ 261153Z AUTO 31009KT 10SM OVC006 01/M02 A2974 RMK AO2 CIG 003V010 SLP073 60001 70012 T00111022 10056 20011 51022
Loading
Personal Weather Stations






























Interactive Weather Map New forecast layout! Learn more

10-Day Weather Forecast

Advertisements
Track Severe Weather on mobile